KGVE/GVE METAR and TAF weather

Enter ICAO airport designator
Station Type Date Time Source
KGVE METAR 2022/07/01 01:35 UTC NOAA

KGVE 010135Z AUTO 00000KT 10SM SCT050 OVC100 25/20 A3016 RMK AO1 T02470204


Station Type Date Time Source
KGVE Decoded METAR 2022/07/01 01:35 UTC NOAA

Station name not available
Jun 30, 2022 - 09:35 PM EDT / 2022.07.01 0135 UTC
Wind: Calm:0
Visibility: 10 mile(s):0
Sky conditions: overcast
Temperature: 76.5 F (24.7 C)
Dew Point: 68.7 F (20.4 C)
Relative Humidity: 77%
Pressure (altimeter): 30.16 in. Hg (1021 hPa)
ob: KGVE 010135Z AUTO 00000KT 10SM SCT050 OVC100 25/20 A3016 RMK AO1 T02470204
cycle: 1

Station Type Date Time Source
KGVE TAF UTC NOAA

Error!

Example: see airport list